sensor_id;sensor_type;location;lat;lon;timestamp;temperature;humidity
56103;DHT22;41970;48.774;9.280;2022-08-19T00:00:27;24.00;91.10
56103;DHT22;41970;48.774;9.280;2022-08-19T00:02:53;23.90;91.30
56103;DHT22;41970;48.774;9.280;2022-08-19T00:05:20;23.90;91.40
56103;DHT22;41970;48.774;9.280;2022-08-19T00:07:47;23.90;91.40
56103;DHT22;41970;48.774;9.280;2022-08-19T00:10:15;24.00;91.30
56103;DHT22;41970;48.774;9.280;2022-08-19T00:12:41;23.90;91.30
56103;DHT22;41970;48.774;9.280;2022-08-19T00:15:10;23.90;91.30
56103;DHT22;41970;48.774;9.280;2022-08-19T00:17:40;23.80;91.50
56103;DHT22;41970;48.774;9.280;2022-08-19T00:20:07;23.90;91.70
56103;DHT22;41970;48.774;9.280;2022-08-19T00:22:34;23.90;91.80
56103;DHT22;41970;48.774;9.280;2022-08-19T00:25:00;23.80;91.80
56103;DHT22;41970;48.774;9.280;2022-08-19T00:27:26;23.80;92.00
56103;DHT22;41970;48.774;9.280;2022-08-19T00:29:51;23.80;92.00
56103;DHT22;41970;48.774;9.280;2022-08-19T00:32:17;23.80;92.00
56103;DHT22;41970;48.774;9.280;2022-08-19T00:34:43;23.80;92.20
56103;DHT22;41970;48.774;9.280;2022-08-19T00:37:09;23.80;92.20
56103;DHT22;41970;48.774;9.280;2022-08-19T00:39:35;23.70;92.20
56103;DHT22;41970;48.774;9.280;2022-08-19T00:42:01;23.60;92.30
56103;DHT22;41970;48.774;9.280;2022-08-19T00:44:28;23.50;92.50
56103;DHT22;41970;48.774;9.280;2022-08-19T00:46:57;23.50;92.50
56103;DHT22;41970;48.774;9.280;2022-08-19T00:49:38;23.40;92.50
56103;DHT22;41970;48.774;9.280;2022-08-19T00:52:12;23.40;92.60
56103;DHT22;41970;48.774;9.280;2022-08-19T00:54:40;23.40;92.70
56103;DHT22;41970;48.774;9.280;2022-08-19T00:57:09;23.40;92.70
56103;DHT22;41970;48.774;9.280;2022-08-19T00:59:39;23.40;93.10
56103;DHT22;41970;48.774;9.280;2022-08-19T01:02:05;23.40;92.60
56103;DHT22;41970;48.774;9.280;2022-08-19T01:04:31;23.30;92.80
56103;DHT22;41970;48.774;9.280;2022-08-19T01:06:58;23.30;92.90
56103;DHT22;41970;48.774;9.280;2022-08-19T01:09:24;23.30;93.00
56103;DHT22;41970;48.774;9.280;2022-08-19T01:11:51;23.30;92.90
56103;DHT22;41970;48.774;9.280;2022-08-19T01:14:18;23.20;92.90
56103;DHT22;41970;48.774;9.280;2022-08-19T01:16:45;23.20;93.00
56103;DHT22;41970;48.774;9.280;2022-08-19T01:19:33;23.30;93.00
56103;DHT22;41970;48.774;9.280;2022-08-19T01:22:12;23.30;92.90
56103;DHT22;41970;48.774;9.280;2022-08-19T01:24:40;23.40;92.80
56103;DHT22;41970;48.774;9.280;2022-08-19T01:27:07;23.30;92.90
56103;DHT22;41970;48.774;9.280;2022-08-19T01:29:34;23.30;92.90
56103;DHT22;41970;48.774;9.280;2022-08-19T01:32:02;23.30;92.90
56103;DHT22;41970;48.774;9.280;2022-08-19T01:34:28;23.30;93.00
56103;DHT22;41970;48.774;9.280;2022-08-19T01:36:54;23.30;93.00
56103;DHT22;41970;48.774;9.280;2022-08-19T01:39:23;23.30;93.00
56103;DHT22;41970;48.774;9.280;2022-08-19T01:41:50;23.20;93.10
56103;DHT22;41970;48.774;9.280;2022-08-19T01:44:20;23.20;93.20
56103;DHT22;41970;48.774;9.280;2022-08-19T01:46:50;23.30;93.20
56103;DHT22;41970;48.774;9.280;2022-08-19T01:49:18;23.30;93.10
56103;DHT22;41970;48.774;9.280;2022-08-19T01:51:46;23.30;93.20
56103;DHT22;41970;48.774;9.280;2022-08-19T01:54:13;23.30;93.20
56103;DHT22;41970;48.774;9.280;2022-08-19T01:56:40;23.20;93.20
56103;DHT22;41970;48.774;9.280;2022-08-19T01:59:10;23.20;93.30
56103;DHT22;41970;48.774;9.280;2022-08-19T02:01:37;23.20;93.30
56103;DHT22;41970;48.774;9.280;2022-08-19T02:04:03;23.10;93.60
56103;DHT22;41970;48.774;9.280;2022-08-19T02:06:30;23.10;93.50
56103;DHT22;41970;48.774;9.280;2022-08-19T02:08:57;23.20;93.50
56103;DHT22;41970;48.774;9.280;2022-08-19T02:11:34;23.10;94.00
56103;DHT22;41970;48.774;9.280;2022-08-19T02:14:03;23.00;93.70
56103;DHT22;41970;48.774;9.280;2022-08-19T02:16:29;23.00;93.90
56103;DHT22;41970;48.774;9.280;2022-08-19T02:18:56;23.00;93.90
56103;DHT22;41970;48.774;9.280;2022-08-19T02:21:23;23.00;94.00
56103;DHT22;41970;48.774;9.280;2022-08-19T02:23:50;23.00;94.00
56103;DHT22;41970;48.774;9.280;2022-08-19T02:26:17;23.00;94.00
56103;DHT22;41970;48.774;9.280;2022-08-19T02:28:44;22.90;94.10
56103;DHT22;41970;48.774;9.280;2022-08-19T02:31:12;22.90;94.30
56103;DHT22;41970;48.774;9.280;2022-08-19T02:33:38;22.80;94.40
56103;DHT22;41970;48.774;9.280;2022-08-19T02:36:05;22.80;94.40
56103;DHT22;41970;48.774;9.280;2022-08-19T02:38:32;22.80;94.50
56103;DHT22;41970;48.774;9.280;2022-08-19T02:41:01;22.80;94.60
56103;DHT22;41970;48.774;9.280;2022-08-19T02:43:29;22.80;94.70
56103;DHT22;41970;48.774;9.280;2022-08-19T02:45:55;22.70;94.90
56103;DHT22;41970;48.774;9.280;2022-08-19T02:48:23;22.60;95.20
56103;DHT22;41970;48.774;9.280;2022-08-19T02:50:51;22.60;95.50
56103;DHT22;41970;48.774;9.280;2022-08-19T02:53:26;22.50;95.50
56103;DHT22;41970;48.774;9.280;2022-08-19T02:55:53;22.50;95.70
56103;DHT22;41970;48.774;9.280;2022-08-19T02:58:20;22.50;95.80
56103;DHT22;41970;48.774;9.280;2022-08-19T03:00:50;22.50;95.70
56103;DHT22;41970;48.774;9.280;2022-08-19T03:03:16;22.50;95.70
56103;DHT22;41970;48.774;9.280;2022-08-19T03:05:43;22.50;95.70
56103;DHT22;41970;48.774;9.280;2022-08-19T03:08:09;22.40;95.80
56103;DHT22;41970;48.774;9.280;2022-08-19T03:10:47;22.40;95.80
56103;DHT22;41970;48.774;9.280;2022-08-19T03:13:15;22.40;95.80
56103;DHT22;41970;48.774;9.280;2022-08-19T03:15:43;22.50;95.90
56103;DHT22;41970;48.774;9.280;2022-08-19T03:18:09;22.40;95.90
56103;DHT22;41970;48.774;9.280;2022-08-19T03:20:43;22.40;96.00
56103;DHT22;41970;48.774;9.280;2022-08-19T03:23:11;22.40;96.10
56103;DHT22;41970;48.774;9.280;2022-08-19T03:25:43;22.30;96.10
56103;DHT22;41970;48.774;9.280;2022-08-19T03:28:11;22.30;96.20
56103;DHT22;41970;48.774;9.280;2022-08-19T03:30:38;22.30;96.40
56103;DHT22;41970;48.774;9.280;2022-08-19T03:33:07;22.30;96.50
56103;DHT22;41970;48.774;9.280;2022-08-19T03:35:33;22.40;96.40
56103;DHT22;41970;48.774;9.280;2022-08-19T03:38:03;22.40;96.20
56103;DHT22;41970;48.774;9.280;2022-08-19T03:40:29;22.40;96.20
56103;DHT22;41970;48.774;9.280;2022-08-19T03:43:00;22.50;96.10
56103;DHT22;41970;48.774;9.280;2022-08-19T03:45:26;22.50;96.20
56103;DHT22;41970;48.774;9.280;2022-08-19T03:47:53;22.50;96.20
56103;DHT22;41970;48.774;9.280;2022-08-19T03:50:19;22.50;96.30
56103;DHT22;41970;48.774;9.280;2022-08-19T03:52:49;22.50;96.30
56103;DHT22;41970;48.774;9.280;2022-08-19T03:55:17;22.50;96.20
56103;DHT22;41970;48.774;9.280;2022-08-19T03:57:43;22.50;96.00
56103;DHT22;41970;48.774;9.280;2022-08-19T04:00:11;22.50;96.00
56103;DHT22;41970;48.774;9.280;2022-08-19T04:02:37;22.50;96.00
56103;DHT22;41970;48.774;9.280;2022-08-19T04:05:03;22.50;96.10
56103;DHT22;41970;48.774;9.280;2022-08-19T04:07:29;22.50;96.10
56103;DHT22;41970;48.774;9.280;2022-08-19T04:09:55;22.40;96.10
56103;DHT22;41970;48.774;9.280;2022-08-19T04:12:21;22.30;96.30
56103;DHT22;41970;48.774;9.280;2022-08-19T04:14:47;22.30;96.40
56103;DHT22;41970;48.774;9.280;2022-08-19T04:17:13;22.30;96.40
56103;DHT22;41970;48.774;9.280;2022-08-19T04:19:40;22.30;96.40
56103;DHT22;41970;48.774;9.280;2022-08-19T04:22:08;22.30;96.50
56103;DHT22;41970;48.774;9.280;2022-08-19T04:24:36;22.30;96.40
56103;DHT22;41970;48.774;9.280;2022-08-19T04:27:02;22.30;96.40
56103;DHT22;41970;48.774;9.280;2022-08-19T04:29:29;22.30;96.40
56103;DHT22;41970;48.774;9.280;2022-08-19T04:31:56;22.30;96.50
56103;DHT22;41970;48.774;9.280;2022-08-19T04:34:25;22.30;96.40
56103;DHT22;41970;48.774;9.280;2022-08-19T04:36:53;22.30;96.50
56103;DHT22;41970;48.774;9.280;2022-08-19T04:39:22;22.20;96.70
56103;DHT22;41970;48.774;9.280;2022-08-19T04:41:48;22.20;96.60
56103;DHT22;41970;48.774;9.280;2022-08-19T04:44:34;22.20;96.70
56103;DHT22;41970;48.774;9.280;2022-08-19T04:47:01;22.20;96.70
56103;DHT22;41970;48.774;9.280;2022-08-19T04:49:31;22.20;96.70
56103;DHT22;41970;48.774;9.280;2022-08-19T04:51:57;22.20;96.70
56103;DHT22;41970;48.774;9.280;2022-08-19T04:54:24;22.20;96.70
56103;DHT22;41970;48.774;9.280;2022-08-19T04:56:52;22.20;96.60
56103;DHT22;41970;48.774;9.280;2022-08-19T04:59:19;22.10;96.70
56103;DHT22;41970;48.774;9.280;2022-08-19T05:01:46;22.20;96.70
56103;DHT22;41970;48.774;9.280;2022-08-19T05:04:19;22.20;96.60
56103;DHT22;41970;48.774;9.280;2022-08-19T05:06:49;22.20;96.70
56103;DHT22;41970;48.774;9.280;2022-08-19T05:09:15;22.10;96.90
56103;DHT22;41970;48.774;9.280;2022-08-19T05:11:42;22.00;96.80
56103;DHT22;41970;48.774;9.280;2022-08-19T05:14:08;22.00;97.20
56103;DHT22;41970;48.774;9.280;2022-08-19T05:16:35;22.10;97.10
56103;DHT22;41970;48.774;9.280;2022-08-19T05:19:01;22.10;97.10
56103;DHT22;41970;48.774;9.280;2022-08-19T05:21:45;22.00;97.10
56103;DHT22;41970;48.774;9.280;2022-08-19T05:24:30;22.00;97.30
56103;DHT22;41970;48.774;9.280;2022-08-19T05:27:00;22.00;97.30
56103;DHT22;41970;48.774;9.280;2022-08-19T05:29:29;22.00;97.30
56103;DHT22;41970;48.774;9.280;2022-08-19T05:31:55;22.00;97.30
56103;DHT22;41970;48.774;9.280;2022-08-19T05:34:23;21.90;97.40
56103;DHT22;41970;48.774;9.280;2022-08-19T05:36:56;22.00;97.30
56103;DHT22;41970;48.774;9.280;2022-08-19T05:39:26;22.10;97.20
56103;DHT22;41970;48.774;9.280;2022-08-19T05:41:56;22.00;97.20
56103;DHT22;41970;48.774;9.280;2022-08-19T05:44:27;22.00;97.20
56103;DHT22;41970;48.774;9.280;2022-08-19T05:46:58;22.10;97.20
56103;DHT22;41970;48.774;9.280;2022-08-19T05:49:26;22.00;97.10
56103;DHT22;41970;48.774;9.280;2022-08-19T05:51:53;22.00;97.50
56103;DHT22;41970;48.774;9.280;2022-08-19T05:54:21;22.00;97.40
56103;DHT22;41970;48.774;9.280;2022-08-19T05:56:50;22.00;97.30
56103;DHT22;41970;48.774;9.280;2022-08-19T05:59:18;22.10;97.60
56103;DHT22;41970;48.774;9.280;2022-08-19T06:01:48;22.10;97.80
56103;DHT22;41970;48.774;9.280;2022-08-19T06:04:17;22.10;98.20
56103;DHT22;41970;48.774;9.280;2022-08-19T06:06:45;22.00;98.40
56103;DHT22;41970;48.774;9.280;2022-08-19T06:09:12;22.00;98.80
56103;DHT22;41970;48.774;9.280;2022-08-19T06:11:45;21.90;99.10
56103;DHT22;41970;48.774;9.280;2022-08-19T06:14:17;21.90;99.10
56103;DHT22;41970;48.774;9.280;2022-08-19T06:16:45;21.90;99.70
56103;DHT22;41970;48.774;9.280;2022-08-19T06:19:14;21.90;99.60
56103;DHT22;41970;48.774;9.280;2022-08-19T06:21:43;21.90;99.90
56103;DHT22;41970;48.774;9.280;2022-08-19T06:24:11;21.80;99.90
56103;DHT22;41970;48.774;9.280;2022-08-19T06:26:41;21.80;99.90
56103;DHT22;41970;48.774;9.280;2022-08-19T06:29:08;21.70;99.90
56103;DHT22;41970;48.774;9.280;2022-08-19T06:31:35;21.70;99.90
56103;DHT22;41970;48.774;9.280;2022-08-19T06:34:04;21.80;99.90
56103;DHT22;41970;48.774;9.280;2022-08-19T06:36:35;21.70;99.90
56103;DHT22;41970;48.774;9.280;2022-08-19T06:39:05;21.80;99.90
56103;DHT22;41970;48.774;9.280;2022-08-19T06:41:35;21.70;99.90
56103;DHT22;41970;48.774;9.280;2022-08-19T06:44:02;21.80;99.90
56103;DHT22;41970;48.774;9.280;2022-08-19T06:46:28;21.80;99.90
56103;DHT22;41970;48.774;9.280;2022-08-19T06:48:54;21.80;99.90
56103;DHT22;41970;48.774;9.280;2022-08-19T06:51:21;21.80;99.90
56103;DHT22;41970;48.774;9.280;2022-08-19T06:53:49;21.80;99.90
56103;DHT22;41970;48.774;9.280;2022-08-19T06:56:17;21.80;99.90
56103;DHT22;41970;48.774;9.280;2022-08-19T06:58:43;21.90;99.90
56103;DHT22;41970;48.774;9.280;2022-08-19T07:01:10;22.00;99.90
56103;DHT22;41970;48.774;9.280;2022-08-19T07:03:37;22.00;99.90
56103;DHT22;41970;48.774;9.280;2022-08-19T07:06:09;22.00;99.90
56103;DHT22;41970;48.774;9.280;2022-08-19T07:08:37;21.90;99.90
56103;DHT22;41970;48.774;9.280;2022-08-19T07:11:07;21.90;99.90
56103;DHT22;41970;48.774;9.280;2022-08-19T07:13:36;21.90;99.90
56103;DHT22;41970;48.774;9.280;2022-08-19T07:16:04;21.80;99.90
56103;DHT22;41970;48.774;9.280;2022-08-19T07:18:30;21.80;99.90
56103;DHT22;41970;48.774;9.280;2022-08-19T07:21:08;21.90;99.90
56103;DHT22;41970;48.774;9.280;2022-08-19T07:23:34;21.90;99.90
56103;DHT22;41970;48.774;9.280;2022-08-19T07:26:08;22.00;99.90
56103;DHT22;41970;48.774;9.280;2022-08-19T07:28:34;21.90;99.90
56103;DHT22;41970;48.774;9.280;2022-08-19T07:31:12;21.80;99.90
56103;DHT22;41970;48.774;9.280;2022-08-19T07:33:39;21.80;99.90
56103;DHT22;41970;48.774;9.280;2022-08-19T07:36:08;21.80;99.90
56103;DHT22;41970;48.774;9.280;2022-08-19T07:38:38;21.70;99.90
56103;DHT22;41970;48.774;9.280;2022-08-19T07:41:05;21.70;99.90
56103;DHT22;41970;48.774;9.280;2022-08-19T07:43:31;21.70;99.90
56103;DHT22;41970;48.774;9.280;2022-08-19T07:45:57;21.70;99.90
56103;DHT22;41970;48.774;9.280;2022-08-19T07:48:25;21.70;99.90
56103;DHT22;41970;48.774;9.280;2022-08-19T07:50:55;21.70;99.90
56103;DHT22;41970;48.774;9.280;2022-08-19T07:53:23;21.70;99.90
56103;DHT22;41970;48.774;9.280;2022-08-19T07:55:50;21.70;99.90
56103;DHT22;41970;48.774;9.280;2022-08-19T07:58:18;21.70;99.90
56103;DHT22;41970;48.774;9.280;2022-08-19T08:00:46;21.80;99.90
56103;DHT22;41970;48.774;9.280;2022-08-19T08:03:14;21.80;99.90
56103;DHT22;41970;48.774;9.280;2022-08-19T08:05:40;21.80;99.90
56103;DHT22;41970;48.774;9.280;2022-08-19T08:08:25;21.80;99.90
56103;DHT22;41970;48.774;9.280;2022-08-19T08:11:19;21.80;99.90
56103;DHT22;41970;48.774;9.280;2022-08-19T08:13:45;21.70;99.90
56103;DHT22;41970;48.774;9.280;2022-08-19T08:16:11;21.70;99.90
56103;DHT22;41970;48.774;9.280;2022-08-19T08:18:37;21.70;99.90
56103;DHT22;41970;48.774;9.280;2022-08-19T08:21:07;21.80;99.90
56103;DHT22;41970;48.774;9.280;2022-08-19T08:23:34;21.80;99.90
56103;DHT22;41970;48.774;9.280;2022-08-19T08:26:00;21.90;99.90
56103;DHT22;41970;48.774;9.280;2022-08-19T08:28:27;21.90;99.90
56103;DHT22;41970;48.774;9.280;2022-08-19T08:30:53;21.80;99.90
56103;DHT22;41970;48.774;9.280;2022-08-19T08:33:23;21.70;99.90
56103;DHT22;41970;48.774;9.280;2022-08-19T08:35:50;21.70;99.90
56103;DHT22;41970;48.774;9.280;2022-08-19T08:38:15;21.70;99.90
56103;DHT22;41970;48.774;9.280;2022-08-19T08:40:50;21.70;99.90
56103;DHT22;41970;48.774;9.280;2022-08-19T08:43:27;21.70;99.90
56103;DHT22;41970;48.774;9.280;2022-08-19T08:46:04;21.70;99.90
56103;DHT22;41970;48.774;9.280;2022-08-19T08:48:58;21.70;99.90
56103;DHT22;41970;48.774;9.280;2022-08-19T08:51:47;21.80;99.90
56103;DHT22;41970;48.774;9.280;2022-08-19T08:54:17;21.80;99.90
56103;DHT22;41970;48.774;9.280;2022-08-19T08:56:45;21.80;99.90
56103;DHT22;41970;48.774;9.280;2022-08-19T09:01:50;22.00;99.90
56103;DHT22;41970;48.774;9.280;2022-08-19T09:04:17;21.90;99.90
56103;DHT22;41970;48.774;9.280;2022-08-19T09:09:50;21.90;99.90
56103;DHT22;41970;48.774;9.280;2022-08-19T09:14:53;21.90;99.90
56103;DHT22;41970;48.774;9.280;2022-08-19T09:17:24;21.90;99.90
56103;DHT22;41970;48.774;9.280;2022-08-19T09:20:21;21.90;99.90
56103;DHT22;41970;48.774;9.280;2022-08-19T09:22:47;21.80;99.90
56103;DHT22;41970;48.774;9.280;2022-08-19T09:25:17;21.90;99.90
56103;DHT22;41970;48.774;9.280;2022-08-19T09:27:45;21.90;99.90
56103;DHT22;41970;48.774;9.280;2022-08-19T09:30:19;21.90;99.90
56103;DHT22;41970;48.774;9.280;2022-08-19T09:32:46;21.80;99.90
56103;DHT22;41970;48.774;9.280;2022-08-19T09:35:13;21.80;99.90
56103;DHT22;41970;48.774;9.280;2022-08-19T09:37:40;21.80;99.90
56103;DHT22;41970;48.774;9.280;2022-08-19T09:40:07;21.80;99.90
56103;DHT22;41970;48.774;9.280;2022-08-19T09:42:33;21.80;99.90
56103;DHT22;41970;48.774;9.280;2022-08-19T09:45:00;21.90;99.90
56103;DHT22;41970;48.774;9.280;2022-08-19T09:47:25;22.00;99.90
56103;DHT22;41970;48.774;9.280;2022-08-19T09:49:51;22.00;99.90
56103;DHT22;41970;48.774;9.280;2022-08-19T09:52:17;22.00;99.90
56103;DHT22;41970;48.774;9.280;2022-08-19T09:54:43;22.00;99.90
56103;DHT22;41970;48.774;9.280;2022-08-19T09:57:09;22.10;99.90
56103;DHT22;41970;48.774;9.280;2022-08-19T09:59:35;22.20;99.90
56103;DHT22;41970;48.774;9.280;2022-08-19T10:02:01;22.30;99.90
56103;DHT22;41970;48.774;9.280;2022-08-19T10:04:27;22.30;99.90
56103;DHT22;41970;48.774;9.280;2022-08-19T10:07:13;22.40;99.90
56103;DHT22;41970;48.774;9.280;2022-08-19T10:09:39;22.40;99.90
56103;DHT22;41970;48.774;9.280;2022-08-19T10:12:07;22.40;99.90
56103;DHT22;41970;48.774;9.280;2022-08-19T10:14:34;22.20;99.90
56103;DHT22;41970;48.774;9.280;2022-08-19T10:17:01;22.10;99.90
56103;DHT22;41970;48.774;9.280;2022-08-19T10:19:28;22.00;99.90
56103;DHT22;41970;48.774;9.280;2022-08-19T10:21:57;21.90;99.90
56103;DHT22;41970;48.774;9.280;2022-08-19T10:24:24;21.70;99.90
56103;DHT22;41970;48.774;9.280;2022-08-19T10:26:51;21.80;99.90
56103;DHT22;41970;48.774;9.280;2022-08-19T10:29:17;21.90;99.90
56103;DHT22;41970;48.774;9.280;2022-08-19T10:31:43;22.00;99.90
56103;DHT22;41970;48.774;9.280;2022-08-19T10:34:09;22.10;99.90
56103;DHT22;41970;48.774;9.280;2022-08-19T10:36:36;21.90;99.90
56103;DHT22;41970;48.774;9.280;2022-08-19T10:39:08;21.80;99.90
56103;DHT22;41970;48.774;9.280;2022-08-19T10:41:37;21.80;99.90
56103;DHT22;41970;48.774;9.280;2022-08-19T10:44:12;21.90;99.90
56103;DHT22;41970;48.774;9.280;2022-08-19T10:46:41;22.00;99.90
56103;DHT22;41970;48.774;9.280;2022-08-19T10:49:11;22.10;99.90
56103;DHT22;41970;48.774;9.280;2022-08-19T10:51:38;22.10;99.90
56103;DHT22;41970;48.774;9.280;2022-08-19T10:54:23;22.10;99.90
56103;DHT22;41970;48.774;9.280;2022-08-19T10:57:09;22.00;99.90
56103;DHT22;41970;48.774;9.280;2022-08-19T10:59:36;22.10;99.90
56103;DHT22;41970;48.774;9.280;2022-08-19T11:02:04;22.10;99.90
56103;DHT22;41970;48.774;9.280;2022-08-19T11:04:31;22.20;99.90
56103;DHT22;41970;48.774;9.280;2022-08-19T11:06:58;22.30;99.90
56103;DHT22;41970;48.774;9.280;2022-08-19T11:09:25;22.30;99.90
56103;DHT22;41970;48.774;9.280;2022-08-19T11:11:52;21.90;99.90
56103;DHT22;41970;48.774;9.280;2022-08-19T11:14:19;21.60;99.90
56103;DHT22;41970;48.774;9.280;2022-08-19T11:16:47;21.40;99.90
56103;DHT22;41970;48.774;9.280;2022-08-19T11:19:14;21.60;99.90
56103;DHT22;41970;48.774;9.280;2022-08-19T11:21:44;21.60;99.90
56103;DHT22;41970;48.774;9.280;2022-08-19T11:24:16;21.60;99.90
56103;DHT22;41970;48.774;9.280;2022-08-19T11:26:44;21.80;99.90
56103;DHT22;41970;48.774;9.280;2022-08-19T11:29:12;22.00;99.90
56103;DHT22;41970;48.774;9.280;2022-08-19T11:31:41;22.00;99.90
56103;DHT22;41970;48.774;9.280;2022-08-19T11:34:10;22.00;99.90
56103;DHT22;41970;48.774;9.280;2022-08-19T11:36:41;22.20;99.90
56103;DHT22;41970;48.774;9.280;2022-08-19T11:39:10;22.30;99.90
56103;DHT22;41970;48.774;9.280;2022-08-19T11:41:36;22.40;99.90
56103;DHT22;41970;48.774;9.280;2022-08-19T11:44:02;22.40;99.90
56103;DHT22;41970;48.774;9.280;2022-08-19T11:46:30;22.40;99.90
56103;DHT22;41970;48.774;9.280;2022-08-19T11:48:58;22.40;99.90
56103;DHT22;41970;48.774;9.280;2022-08-19T11:51:26;22.50;99.90
56103;DHT22;41970;48.774;9.280;2022-08-19T11:53:54;22.50;99.90
56103;DHT22;41970;48.774;9.280;2022-08-19T11:56:24;22.60;99.90
56103;DHT22;41970;48.774;9.280;2022-08-19T11:58:51;22.60;99.90
56103;DHT22;41970;48.774;9.280;2022-08-19T12:01:19;22.60;99.90
56103;DHT22;41970;48.774;9.280;2022-08-19T12:03:47;22.70;99.90
56103;DHT22;41970;48.774;9.280;2022-08-19T12:06:16;22.70;99.90
56103;DHT22;41970;48.774;9.280;2022-08-19T12:08:44;22.70;99.90
56103;DHT22;41970;48.774;9.280;2022-08-19T12:11:12;22.70;99.90
56103;DHT22;41970;48.774;9.280;2022-08-19T12:13:39;22.70;99.90
56103;DHT22;41970;48.774;9.280;2022-08-19T12:16:11;22.60;99.90
56103;DHT22;41970;48.774;9.280;2022-08-19T12:18:39;22.40;99.90
56103;DHT22;41970;48.774;9.280;2022-08-19T12:21:06;21.90;99.90
56103;DHT22;41970;48.774;9.280;2022-08-19T12:23:32;21.80;99.90
56103;DHT22;41970;48.774;9.280;2022-08-19T12:25:58;21.70;99.90
56103;DHT22;41970;48.774;9.280;2022-08-19T12:28:24;21.70;99.90
56103;DHT22;41970;48.774;9.280;2022-08-19T12:30:51;21.70;99.90
56103;DHT22;41970;48.774;9.280;2022-08-19T12:33:18;21.80;99.90
56103;DHT22;41970;48.774;9.280;2022-08-19T12:35:45;22.00;99.90
56103;DHT22;41970;48.774;9.280;2022-08-19T12:38:15;22.10;99.90
56103;DHT22;41970;48.774;9.280;2022-08-19T12:40:41;22.00;99.90
56103;DHT22;41970;48.774;9.280;2022-08-19T12:43:10;21.90;99.90
56103;DHT22;41970;48.774;9.280;2022-08-19T12:45:37;21.80;99.90
56103;DHT22;41970;48.774;9.280;2022-08-19T12:48:04;21.90;99.90
56103;DHT22;41970;48.774;9.280;2022-08-19T12:50:30;22.10;99.90
56103;DHT22;41970;48.774;9.280;2022-08-19T12:52:57;22.30;99.90
56103;DHT22;41970;48.774;9.280;2022-08-19T12:55:23;22.40;99.90
56103;DHT22;41970;48.774;9.280;2022-08-19T12:57:50;22.50;99.90
56103;DHT22;41970;48.774;9.280;2022-08-19T13:00:20;22.50;99.90
56103;DHT22;41970;48.774;9.280;2022-08-19T13:02:48;22.30;99.90
56103;DHT22;41970;48.774;9.280;2022-08-19T13:05:19;22.40;99.90
56103;DHT22;41970;48.774;9.280;2022-08-19T13:07:46;22.40;99.90
56103;DHT22;41970;48.774;9.280;2022-08-19T13:10:15;22.40;99.90
56103;DHT22;41970;48.774;9.280;2022-08-19T13:12:42;22.40;99.90
56103;DHT22;41970;48.774;9.280;2022-08-19T13:15:11;22.30;99.90
56103;DHT22;41970;48.774;9.280;2022-08-19T13:17:38;22.40;99.90
56103;DHT22;41970;48.774;9.280;2022-08-19T13:20:05;22.40;99.90
56103;DHT22;41970;48.774;9.280;2022-08-19T13:22:33;22.30;99.90
56103;DHT22;41970;48.774;9.280;2022-08-19T13:25:01;22.10;99.90
56103;DHT22;41970;48.774;9.280;2022-08-19T13:27:27;21.60;99.90
56103;DHT22;41970;48.774;9.280;2022-08-19T13:29:53;21.20;99.90
56103;DHT22;41970;48.774;9.280;2022-08-19T13:32:37;20.90;99.90
56103;DHT22;41970;48.774;9.280;2022-08-19T13:35:21;20.70;99.90
56103;DHT22;41970;48.774;9.280;2022-08-19T13:37:50;20.50;99.90
56103;DHT22;41970;48.774;9.280;2022-08-19T13:40:19;20.60;99.90
56103;DHT22;41970;48.774;9.280;2022-08-19T13:42:49;20.60;99.90
56103;DHT22;41970;48.774;9.280;2022-08-19T13:45:18;20.40;99.90
56103;DHT22;41970;48.774;9.280;2022-08-19T13:47:49;20.30;99.90
56103;DHT22;41970;48.774;9.280;2022-08-19T13:50:19;20.20;99.90
56103;DHT22;41970;48.774;9.280;2022-08-19T13:52:46;20.30;99.90
56103;DHT22;41970;48.774;9.280;2022-08-19T13:55:14;20.40;99.90
56103;DHT22;41970;48.774;9.280;2022-08-19T13:57:41;20.40;99.90
56103;DHT22;41970;48.774;9.280;2022-08-19T14:00:14;20.50;99.90
56103;DHT22;41970;48.774;9.280;2022-08-19T14:02:41;20.60;99.90
56103;DHT22;41970;48.774;9.280;2022-08-19T14:05:09;20.70;99.90
56103;DHT22;41970;48.774;9.280;2022-08-19T14:07:35;20.90;99.90
56103;DHT22;41970;48.774;9.280;2022-08-19T14:10:03;21.00;99.90
56103;DHT22;41970;48.774;9.280;2022-08-19T14:12:29;21.20;99.90
56103;DHT22;41970;48.774;9.280;2022-08-19T14:14:57;21.30;99.90
56103;DHT22;41970;48.774;9.280;2022-08-19T14:17:23;21.40;99.90
56103;DHT22;41970;48.774;9.280;2022-08-19T14:19:59;21.60;99.90
56103;DHT22;41970;48.774;9.280;2022-08-19T14:22:31;21.60;99.90
56103;DHT22;41970;48.774;9.280;2022-08-19T14:24:57;21.60;99.90
56103;DHT22;41970;48.774;9.280;2022-08-19T14:27:23;21.70;99.90
56103;DHT22;41970;48.774;9.280;2022-08-19T14:29:51;21.80;99.90
56103;DHT22;41970;48.774;9.280;2022-08-19T14:32:18;21.80;99.90
56103;DHT22;41970;48.774;9.280;2022-08-19T14:34:44;21.80;99.90
56103;DHT22;41970;48.774;9.280;2022-08-19T14:37:14;21.90;99.90
56103;DHT22;41970;48.774;9.280;2022-08-19T14:39:41;21.90;99.90
56103;DHT22;41970;48.774;9.280;2022-08-19T14:42:08;21.90;99.90
56103;DHT22;41970;48.774;9.280;2022-08-19T14:44:35;22.00;99.90
56103;DHT22;41970;48.774;9.280;2022-08-19T14:47:01;22.10;99.90
56103;DHT22;41970;48.774;9.280;2022-08-19T14:49:27;22.10;99.90
56103;DHT22;41970;48.774;9.280;2022-08-19T14:51:53;22.00;99.90
56103;DHT22;41970;48.774;9.280;2022-08-19T14:54:19;22.00;99.90
56103;DHT22;41970;48.774;9.280;2022-08-19T14:56:45;22.00;99.90
56103;DHT22;41970;48.774;9.280;2022-08-19T14:59:10;22.10;99.90
56103;DHT22;41970;48.774;9.280;2022-08-19T15:01:36;21.80;99.90
56103;DHT22;41970;48.774;9.280;2022-08-19T15:04:02;21.60;99.90
56103;DHT22;41970;48.774;9.280;2022-08-19T15:06:28;21.60;99.90
56103;DHT22;41970;48.774;9.280;2022-08-19T15:08:55;21.30;99.90
56103;DHT22;41970;48.774;9.280;2022-08-19T15:11:23;21.20;99.90
56103;DHT22;41970;48.774;9.280;2022-08-19T15:13:49;21.10;99.90
56103;DHT22;41970;48.774;9.280;2022-08-19T15:16:16;20.90;99.90
56103;DHT22;41970;48.774;9.280;2022-08-19T15:18:43;20.90;99.90
56103;DHT22;41970;48.774;9.280;2022-08-19T15:21:14;20.90;99.90
56103;DHT22;41970;48.774;9.280;2022-08-19T15:23:46;20.90;99.90
56103;DHT22;41970;48.774;9.280;2022-08-19T15:26:14;20.90;99.90
56103;DHT22;41970;48.774;9.280;2022-08-19T15:28:40;20.90;99.90
56103;DHT22;41970;48.774;9.280;2022-08-19T15:31:06;21.10;99.90
56103;DHT22;41970;48.774;9.280;2022-08-19T15:33:34;21.20;99.90
56103;DHT22;41970;48.774;9.280;2022-08-19T15:36:06;21.30;99.90
56103;DHT22;41970;48.774;9.280;2022-08-19T15:38:33;21.40;99.90
56103;DHT22;41970;48.774;9.280;2022-08-19T15:41:01;21.60;99.90
56103;DHT22;41970;48.774;9.280;2022-08-19T15:43:46;21.70;99.90
56103;DHT22;41970;48.774;9.280;2022-08-19T15:46:17;21.80;99.90